Oak Hill, Florida
Current Conditions -  °F | °C
As of 7:08 PM on Saturday 22 Nov 2014 (Local Time) from KTTS Reporting Station
Overcast Overcast  
Wind Chill: 72°   Ceiling: 2800
Heat Index: 72°   Visibility: 10mi
Dew Point: 64°   Wind: 16mph
Humidity: 78%   Direction: 110°ESE
Pressure: 30.19"   Gusts: 21mph
Location:  28.86°N, 80.85°W
Report Text: KTTS 230008Z AUTO 11014G18KT 10SM BKN028 OVC034 22/18 A3019 RMK AO2 VISNO RWY33 CHINO RWY33 $
Loading
Personal Weather Stations






























Interactive Weather Map New forecast layout! Learn more

10-Day Weather Forecast

Advertisements
Track Severe Weather on mobile